Time;durP1;ratioP1;P1;durP2;ratioP2;P2;SDS_P1;SDS_P2;PMS_P1;PMS_P2;Temp;Humidity;BMP_temperature;BMP_pressure;BME280_temperature;BME280_humidity;BME280_pressure;Samples;Min_cycle;Max_cycle;Signal;HPM_P1;HPM_P2
2023/09/28 00:00:35;;;;;;;5.22;4.05;;;;;;;;;;6107786;23;20022;-82
2023/09/28 00:02:53;;;;;;;6.13;4.53;;;;;;;;;;6158082;23;20024;-82
2023/09/28 00:05:21;;;;;;;8.05;5.18;;;;;;;;;;6134611;23;20041;-82
2023/09/28 00:07:49;;;;;;;6.53;5.43;;;;;;;;;;6110559;23;20470;-82
2023/09/28 00:10:17;;;;;;;6.25;4.68;;;;;;;;;;6132996;23;20017;-82
2023/09/28 00:12:46;;;;;;;5.97;5.45;;;;;;;;;;6159282;23;20014;-82
2023/09/28 00:15:14;;;;;;;7.50;5.05;;;;;;;;;;6135125;23;20022;-82
2023/09/28 00:17:40;;;;;;;6.78;5.88;;;;;;;;;;6170697;23;20013;-82
2023/09/28 00:20:18;;;;;;;8.38;6.53;;;;;;;;;;6160220;23;20028;-82
2023/09/28 00:22:48;;;;;;;6.88;6.15;;;;;;;;;;6111090;23;20031;-82
2023/09/28 00:25:19;;;;;;;5.90;5.35;;;;;;;;;;6111614;23;20027;-82
2023/09/28 00:27:51;;;;;;;5.97;5.38;;;;;;;;;;6135837;23;20039;-82
2023/09/28 00:30:22;;;;;;;7.25;4.95;;;;;;;;;;6134170;23;20017;-82
2023/09/28 00:32:49;;;;;;;5.47;4.22;;;;;;;;;;6110565;23;20028;-82
2023/09/28 00:35:18;;;;;;;8.32;6.03;;;;;;;;;;6135773;23;20032;-82
2023/09/28 00:37:45;;;;;;;6.38;4.88;;;;;;;;;;6135166;23;20018;-82
2023/09/28 00:40:18;;;;;;;5.68;4.68;;;;;;;;;;6134922;23;20017;-82
2023/09/28 00:42:48;;;;;;;6.43;5.13;;;;;;;;;;6109770;23;20047;-82
2023/09/28 00:45:15;;;;;;;5.90;4.80;;;;;;;;;;6110104;23;20018;-82
2023/09/28 00:47:42;;;;;;;5.57;4.95;;;;;;;;;;6134752;23;20009;-82
2023/09/28 00:50:14;;;;;;;6.78;6.00;;;;;;;;;;6108813;23;20023;-82
2023/09/28 00:52:42;;;;;;;7.88;5.32;;;;;;;;;;6133921;23;20021;-82
2023/09/28 00:55:13;;;;;;;8.32;5.80;;;;;;;;;;6160050;23;20361;-82
2023/09/28 00:57:46;;;;;;;12.55;5.20;;;;;;;;;;6111779;23;20028;-82
2023/09/28 01:00:23;;;;;;;14.32;5.70;;;;;;;;;;6134342;23;20036;-82
2023/09/28 01:02:52;;;;;;;5.38;4.88;;;;;;;;;;6109415;23;20021;-82
2023/09/28 01:05:18;;;;;;;9.10;5.25;;;;;;;;;;6135238;23;20024;-82
2023/09/28 01:07:48;;;;;;;5.50;4.72;;;;;;;;;;6135406;23;20021;-82
2023/09/28 01:10:20;;;;;;;6.22;4.65;;;;;;;;;;6135639;23;20021;-82
2023/09/28 01:12:48;;;;;;;6.07;4.82;;;;;;;;;;6134683;23;20039;-82
2023/09/28 01:15:19;;;;;;;6.18;5.32;;;;;;;;;;6144081;23;20426;-82
2023/09/28 01:17:45;;;;;;;8.85;6.22;;;;;;;;;;6110383;23;20017;-82
2023/09/28 01:20:18;;;;;;;4.88;4.40;;;;;;;;;;6159735;23;20020;-82
2023/09/28 01:22:48;;;;;;;7.90;6.40;;;;;;;;;;6143421;23;20014;-82
2023/09/28 01:25:20;;;;;;;9.70;6.25;;;;;;;;;;6132820;23;20027;-82
2023/09/28 01:27:47;;;;;;;7.53;6.28;;;;;;;;;;6109535;23;20040;-82
2023/09/28 01:30:16;;;;;;;7.05;6.30;;;;;;;;;;6157017;23;20040;-82
2023/09/28 01:32:42;;;;;;;9.20;5.55;;;;;;;;;;6135219;23;20037;-82
2023/09/28 01:35:12;;;;;;;6.57;5.60;;;;;;;;;;6170907;23;20080;-82
2023/09/28 01:37:50;;;;;;;5.65;4.95;;;;;;;;;;6150908;23;20040;-83
2023/09/28 01:40:21;;;;;;;7.78;6.75;;;;;;;;;;6134275;23;20032;-83
2023/09/28 01:42:50;;;;;;;14.15;6.10;;;;;;;;;;6159225;23;20024;-83
2023/09/28 01:45:17;;;;;;;8.93;5.88;;;;;;;;;;6192989;23;20461;-81
2023/09/28 01:47:45;;;;;;;7.80;6.28;;;;;;;;;;6195809;23;20009;-81
2023/09/28 01:50:12;;;;;;;7.90;6.05;;;;;;;;;;6168067;23;20031;-81
2023/09/28 01:52:38;;;;;;;6.50;5.85;;;;;;;;;;6143806;23;20028;-81
2023/09/28 01:55:07;;;;;;;6.38;5.75;;;;;;;;;;6178733;23;20017;-81
2023/09/28 01:57:33;;;;;;;6.05;5.45;;;;;;;;;;6167981;23;20072;-81
2023/09/28 02:00:05;;;;;;;6.88;5.35;;;;;;;;;;6143493;23;20025;-81
2023/09/28 02:02:34;;;;;;;7.95;5.88;;;;;;;;;;6143776;23;20021;-81
2023/09/28 02:05:04;;;;;;;7.05;6.30;;;;;;;;;;6168275;23;20027;-81
2023/09/28 02:07:36;;;;;;;7.20;6.50;;;;;;;;;;6141841;23;20013;-81
2023/09/28 02:10:09;;;;;;;6.85;5.53;;;;;;;;;;6168049;23;20331;-81
2023/09/28 02:12:39;;;;;;;7.72;5.45;;;;;;;;;;6141932;23;20029;-81
2023/09/28 02:15:09;;;;;;;6.95;6.25;;;;;;;;;;6151494;23;20021;-81
2023/09/28 02:17:36;;;;;;;8.50;6.85;;;;;;;;;;6148257;23;20021;-81
2023/09/28 02:20:08;;;;;;;5.90;4.95;;;;;;;;;;6141737;23;20028;-81
2023/09/28 02:22:36;;;;;;;7.18;6.38;;;;;;;;;;6141193;23;20065;-81
2023/09/28 02:25:08;;;;;;;6.63;5.88;;;;;;;;;;6143126;23;20027;-81
2023/09/28 02:27:35;;;;;;;7.18;5.68;;;;;;;;;;6142208;23;20027;-81
2023/09/28 02:30:06;;;;;;;6.72;5.47;;;;;;;;;;6142794;23;20027;-81
2023/09/28 02:32:33;;;;;;;5.88;4.55;;;;;;;;;;6143723;23;20020;-81
2023/09/28 02:34:59;;;;;;;8.35;5.57;;;;;;;;;;6142125;23;20021;-81
2023/09/28 02:37:26;;;;;;;7.30;6.18;;;;;;;;;;6142761;23;20025;-81
2023/09/28 02:39:56;;;;;;;9.02;6.90;;;;;;;;;;6143461;23;20031;-81
2023/09/28 02:42:24;;;;;;;8.40;6.15;;;;;;;;;;6167949;23;20016;-81
2023/09/28 02:44:51;;;;;;;5.85;5.25;;;;;;;;;;6144061;23;20465;-81
2023/09/28 02:47:21;;;;;;;6.47;5.82;;;;;;;;;;6167643;23;20372;-81
2023/09/28 02:49:48;;;;;;;7.07;6.40;;;;;;;;;;6143145;23;20023;-81
2023/09/28 02:52:16;;;;;;;6.88;5.07;;;;;;;;;;6143493;23;20024;-81
2023/09/28 02:54:43;;;;;;;6.15;5.55;;;;;;;;;;6167309;23;20021;-81
2023/09/28 02:57:11;;;;;;;5.72;4.32;;;;;;;;;;6167442;23;20023;-81
2023/09/28 02:59:38;;;;;;;4.90;4.47;;;;;;;;;;6142425;23;20016;-81
2023/09/28 03:02:13;;;;;;;5.75;5.18;;;;;;;;;;6141979;23;20031;-81
2023/09/28 03:04:42;;;;;;;6.22;5.70;;;;;;;;;;6142190;23;20025;-81
2023/09/28 03:07:10;;;;;;;5.90;4.80;;;;;;;;;;6142083;23;20021;-81
2023/09/28 03:09:37;;;;;;;6.75;5.03;;;;;;;;;;6142409;23;20017;-81
2023/09/28 03:12:04;;;;;;;8.98;5.57;;;;;;;;;;6140635;23;20032;-81
2023/09/28 03:14:34;;;;;;;6.78;5.60;;;;;;;;;;6166400;23;20021;-81
2023/09/28 03:17:03;;;;;;;7.75;6.00;;;;;;;;;;6141261;23;20021;-81
2023/09/28 03:19:33;;;;;;;6.68;5.43;;;;;;;;;;6164562;23;20029;-81
2023/09/28 03:21:59;;;;;;;7.40;6.63;;;;;;;;;;6141186;23;20017;-81
2023/09/28 03:24:28;;;;;;;8.93;6.68;;;;;;;;;;6142741;23;20027;-81
2023/09/28 03:26:55;;;;;;;6.40;5.07;;;;;;;;;;6166543;23;20013;-81
2023/09/28 03:29:25;;;;;;;5.90;4.75;;;;;;;;;;6161937;23;20044;-82
2023/09/28 03:31:57;;;;;;;6.78;5.07;;;;;;;;;;6135899;23;20023;-82
2023/09/28 03:34:25;;;;;;;10.25;6.07;;;;;;;;;;6135782;23;20481;-81
2023/09/28 03:36:55;;;;;;;6.45;5.78;;;;;;;;;;6165164;23;20032;-81
2023/09/28 03:39:22;;;;;;;7.38;6.63;;;;;;;;;;6159890;23;20028;-81
2023/09/28 03:41:51;;;;;;;7.90;5.28;;;;;;;;;;6160017;23;20035;-81
2023/09/28 03:44:23;;;;;;;5.35;4.85;;;;;;;;;;6161321;23;20032;-81
2023/09/28 03:46:51;;;;;;;6.00;4.35;;;;;;;;;;6191170;23;20013;-81
2023/09/28 03:49:20;;;;;;;7.25;6.32;;;;;;;;;;6194225;23;20320;-81
2023/09/28 03:51:49;;;;;;;5.25;4.78;;;;;;;;;;6174275;23;20027;-81
2023/09/28 03:54:16;;;;;;;8.15;4.38;;;;;;;;;;6176046;23;20025;-81
2023/09/28 03:56:46;;;;;;;6.18;4.63;;;;;;;;;;6173015;23;20040;-81
2023/09/28 03:59:13;;;;;;;7.05;6.38;;;;;;;;;;6195250;23;20017;-81
2023/09/28 04:01:44;;;;;;;6.13;5.18;;;;;;;;;;6166579;23;20017;-81
2023/09/28 04:04:12;;;;;;;6.13;4.93;;;;;;;;;;6200746;23;20024;-81
2023/09/28 04:06:41;;;;;;;6.75;5.15;;;;;;;;;;6163664;23;20021;-81
2023/09/28 04:09:10;;;;;;;7.45;5.55;;;;;;;;;;6164215;23;20017;-81
2023/09/28 04:11:39;;;;;;;8.02;5.28;;;;;;;;;;6164515;23;20023;-81
2023/09/28 04:14:09;;;;;;;5.53;5.03;;;;;;;;;;6189739;23;20028;-81
2023/09/28 04:16:39;;;;;;;6.00;5.40;;;;;;;;;;6188231;23;20039;-81
2023/09/28 04:19:08;;;;;;;7.63;6.00;;;;;;;;;;6162431;23;20024;-81
2023/09/28 04:21:38;;;;;;;6.35;5.75;;;;;;;;;;6187524;23;20024;-81
2023/09/28 04:24:06;;;;;;;7.95;6.22;;;;;;;;;;6164724;23;20492;-81
2023/09/28 04:26:37;;;;;;;7.45;5.43;;;;;;;;;;6167716;23;20025;-81
2023/09/28 04:29:07;;;;;;;9.30;6.85;;;;;;;;;;6170969;23;20028;-81
2023/09/28 04:31:37;;;;;;;5.55;5.03;;;;;;;;;;6171681;23;20031;-81
2023/09/28 04:34:04;;;;;;;5.47;4.95;;;;;;;;;;6169389;23;20017;-81
2023/09/28 04:36:34;;;;;;;6.28;5.53;;;;;;;;;;6167101;23;20027;-81
2023/09/28 04:39:04;;;;;;;7.07;6.07;;;;;;;;;;6166395;23;20017;-81
2023/09/28 04:41:33;;;;;;;6.80;5.65;;;;;;;;;;6164790;23;20021;-81
2023/09/28 04:44:02;;;;;;;5.97;5.32;;;;;;;;;;6189610;23;20024;-81
2023/09/28 04:46:31;;;;;;;5.45;4.95;;;;;;;;;;6189412;23;20035;-81
2023/09/28 04:48:59;;;;;;;5.97;5.32;;;;;;;;;;6190057;23;20013;-81
2023/09/28 04:51:29;;;;;;;4.78;4.38;;;;;;;;;;6200317;23;20023;-81
2023/09/28 04:53:57;;;;;;;4.63;4.15;;;;;;;;;;6190123;23;20021;-81
2023/09/28 04:56:24;;;;;;;6.25;5.13;;;;;;;;;;6189849;23;20023;-81
2023/09/28 04:58:56;;;;;;;6.90;5.20;;;;;;;;;;6164844;23;20013;-81
2023/09/28 05:01:24;;;;;;;5.38;4.80;;;;;;;;;;6165368;23;20020;-81
2023/09/28 05:03:53;;;;;;;6.22;5.57;;;;;;;;;;6166091;23;20023;-81
2023/09/28 05:06:20;;;;;;;7.95;4.70;;;;;;;;;;6167543;23;20021;-81
2023/09/28 05:08:47;;;;;;;10.50;4.82;;;;;;;;;;6192831;23;20013;-81
2023/09/28 05:11:19;;;;;;;9.00;4.68;;;;;;;;;;6201478;23;20023;-81
2023/09/28 05:13:47;;;;;;;5.78;5.18;;;;;;;;;;6190679;23;20021;-81
2023/09/28 05:16:14;;;;;;;6.18;5.47;;;;;;;;;;6164330;23;20017;-81
2023/09/28 05:18:43;;;;;;;7.05;5.32;;;;;;;;;;6165520;23;20025;-81
2023/09/28 05:21:10;;;;;;;6.10;5.50;;;;;;;;;;6189236;23;20021;-81
2023/09/28 05:23:42;;;;;;;4.45;4.03;;;;;;;;;;6201450;23;20341;-81
2023/09/28 05:26:10;;;;;;;6.95;5.53;;;;;;;;;;6165044;23;20027;-81
2023/09/28 05:28:39;;;;;;;5.13;4.35;;;;;;;;;;6189624;23;20027;-81
2023/09/28 05:31:11;;;;;;;5.38;4.25;;;;;;;;;;6189674;23;20020;-81
2023/09/28 05:33:38;;;;;;;5.78;5.13;;;;;;;;;;6192145;23;20013;-81
2023/09/28 05:36:07;;;;;;;5.88;4.43;;;;;;;;;;6192043;23;20345;-81
2023/09/28 05:38:35;;;;;;;6.70;5.10;;;;;;;;;;6175263;23;20013;-81
2023/09/28 05:41:04;;;;;;;5.30;4.82;;;;;;;;;;6140674;23;20013;-81
2023/09/28 05:43:32;;;;;;;6.50;4.63;;;;;;;;;;6166405;23;20035;-81
2023/09/28 05:46:01;;;;;;;5.75;5.15;;;;;;;;;;6191433;23;20024;-81
2023/09/28 05:48:28;;;;;;;7.50;4.88;;;;;;;;;;6173809;23;20487;-81
2023/09/28 05:50:56;;;;;;;6.35;3.97;;;;;;;;;;6165360;23;20021;-81
2023/09/28 05:53:24;;;;;;;5.82;4.75;;;;;;;;;;6141073;23;20017;-81
2023/09/28 05:55:51;;;;;;;6.50;5.55;;;;;;;;;;6165903;23;20350;-81
2023/09/28 05:58:21;;;;;;;5.72;4.85;;;;;;;;;;6141186;23;20028;-81
2023/09/28 06:00:48;;;;;;;4.82;4.30;;;;;;;;;;6139886;23;20017;-81
2023/09/28 06:03:16;;;;;;;5.20;4.70;;;;;;;;;;6164367;23;20014;-81
2023/09/28 10:45:58;;;;;;;4.20;3.45;;;;;;;;;;6244396;22;20635;-84
2023/09/28 10:48:25;;;;;;;4.95;3.05;;;;;;;;;;6191966;23;20023;-84
2023/09/28 10:50:53;;;;;;;4.40;3.55;;;;;;;;;;6192229;23;20016;-84
2023/09/28 10:53:21;;;;;;;5.93;3.25;;;;;;;;;;6192498;23;20527;-85
2023/09/28 10:55:50;;;;;;;5.15;3.00;;;;;;;;;;6216074;23;20016;-84
2023/09/28 10:58:20;;;;;;;4.70;3.50;;;;;;;;;;6217529;23;20027;-84
2023/09/28 11:00:47;;;;;;;6.15;3.85;;;;;;;;;;6190663;23;20020;-84
2023/09/28 11:03:18;;;;;;;3.85;3.22;;;;;;;;;;6244085;23;20352;-84
2023/09/28 12:21:28;;;;;;;4.03;2.80;;;;;;;;;;6259037;22;20031;-85
2023/09/28 12:23:58;;;;;;;3.47;2.92;;;;;;;;;;6194784;23;20016;-85
2023/09/28 12:26:25;;;;;;;4.88;3.58;;;;;;;;;;6219213;23;20016;-84
2023/09/28 12:28:58;;;;;;;;;;;;;;;;;;6256185;23;20460;-85
2023/09/28 12:31:26;;;;;;;6.60;3.30;;;;;;;;;;6193710;23;19915;-85
2023/09/28 12:33:54;;;;;;;3.05;2.58;;;;;;;;;;6255986;23;20008;-84
2023/09/28 12:36:22;;;;;;;3.53;2.95;;;;;;;;;;6218236;23;20016;-84
2023/09/28 12:38:51;;;;;;;9.43;3.92;;;;;;;;;;6245352;23;20023;-84
2023/09/28 12:41:20;;;;;;;5.10;2.92;;;;;;;;;;6252715;23;20777;-84
2023/09/28 12:43:48;;;;;;;4.82;3.10;;;;;;;;;;6217208;23;20019;-84
2023/09/28 12:46:15;;;;;;;6.40;3.72;;;;;;;;;;6245052;22;20019;-84
2023/09/28 12:48:43;;;;;;;4.20;3.33;;;;;;;;;;6218396;23;20016;-85
2023/09/28 12:51:12;;;;;;;4.35;3.22;;;;;;;;;;6219249;23;20016;-86
2023/09/28 12:53:40;;;;;;;4.35;2.90;;;;;;;;;;6228649;23;20019;-86
2023/09/28 13:10:27;;;;;;;6.50;3.85;;;;;;;;;;6268082;22;20015;-85
2023/09/28 13:12:59;;;;;;;4.68;3.67;;;;;;;;;;6214904;23;20031;-84
2023/09/28 13:15:29;;;;;;;4.25;2.70;;;;;;;;;;6163428;23;20020;-84
2023/09/28 13:18:00;;;;;;;4.38;3.10;;;;;;;;;;6162930;23;20032;-84
2023/09/28 13:20:28;;;;;;;3.97;3.05;;;;;;;;;;6186817;23;20024;-84
2023/09/28 13:22:57;;;;;;;3.67;3.15;;;;;;;;;;6198455;23;20024;-84
2023/09/28 14:37:13;;;;;;;3.65;3.10;;;;;;;;;;6039753;23;20037;-81
2023/09/28 14:39:45;;;;;;;5.80;3.00;;;;;;;;;;6069374;23;20022;-81
2023/09/28 14:42:12;;;;;;;3.53;2.80;;;;;;;;;;6153808;23;20017;-81
2023/09/28 14:44:42;;;;;;;4.80;3.75;;;;;;;;;;6190189;23;20016;-81
2023/09/28 14:47:10;;;;;;;2.70;2.47;;;;;;;;;;6165257;23;20016;-81
2023/09/28 14:49:40;;;;;;;3.40;2.53;;;;;;;;;;6164855;23;20024;-83
2023/09/28 14:52:07;;;;;;;3.45;2.72;;;;;;;;;;6215676;23;20020;-84
2023/09/28 14:54:36;;;;;;;4.97;3.55;;;;;;;;;;6189687;23;20012;-84
2023/09/28 14:57:05;;;;;;;5.93;3.13;;;;;;;;;;6218857;23;20013;-84
2023/09/28 14:59:35;;;;;;;5.55;3.20;;;;;;;;;;6190616;23;20051;-84
2023/09/28 15:02:03;;;;;;;5.22;2.97;;;;;;;;;;6164997;23;20024;-84
2023/09/28 15:04:30;;;;;;;5.13;2.97;;;;;;;;;;6190201;23;20009;-84
2023/09/28 15:06:57;;;;;;;4.60;3.33;;;;;;;;;;6164777;23;20020;-83
2023/09/28 15:09:30;;;;;;;3.05;2.65;;;;;;;;;;6189858;23;20035;-84
2023/09/28 15:11:58;;;;;;;3.17;2.70;;;;;;;;;;6214582;23;20017;-84
2023/09/28 15:14:30;;;;;;;4.88;2.60;;;;;;;;;;6223699;23;20021;-83
2023/09/28 15:16:58;;;;;;;6.55;2.97;;;;;;;;;;6188584;23;20021;-84
2023/09/28 15:19:28;;;;;;;3.47;3.08;;;;;;;;;;6216215;23;20016;-83
2023/09/28 15:21:59;;;;;;;4.63;3.07;;;;;;;;;;6215119;23;20020;-83
2023/09/28 15:24:29;;;;;;;2.70;2.45;;;;;;;;;;6215834;23;20013;-84
2023/09/28 15:26:58;;;;;;;5.63;2.72;;;;;;;;;;6161635;23;20020;-83
2023/09/28 15:29:28;;;;;;;3.17;2.60;;;;;;;;;;6163792;23;20020;-84
2023/09/28 15:31:55;;;;;;;3.67;2.70;;;;;;;;;;6163426;23;20020;-84
2023/09/28 15:34:22;;;;;;;3.42;3.13;;;;;;;;;;6161218;23;20484;-84
2023/09/28 15:36:52;;;;;;;3.50;2.72;;;;;;;;;;6193166;23;20527;-84
2023/09/28 15:39:22;;;;;;;4.57;2.85;;;;;;;;;;6188763;23;20043;-84
2023/09/28 15:41:54;;;;;;;3.95;3.17;;;;;;;;;;6163814;23;20457;-84
2023/09/28 15:44:22;;;;;;;3.15;2.58;;;;;;;;;;6163149;23;20013;-83
2023/09/28 15:46:52;;;;;;;2.65;2.45;;;;;;;;;;6185504;23;20031;-83
2023/09/28 15:49:20;;;;;;;3.03;2.72;;;;;;;;;;6161535;23;20017;-83
2023/09/28 15:51:49;;;;;;;4.78;3.03;;;;;;;;;;6211311;23;20349;-83
2023/09/28 15:54:20;;;;;;;3.33;2.72;;;;;;;;;;6162745;23;20020;-83
2023/09/28 15:56:47;;;;;;;6.78;2.70;;;;;;;;;;6187682;23;20016;-83
2023/09/28 15:59:16;;;;;;;3.10;2.80;;;;;;;;;;6188788;23;20024;-83
2023/09/28 16:01:50;;;;;;;4.57;3.22;;;;;;;;;;6201973;23;20504;-83
2023/09/28 16:04:20;;;;;;;3.05;2.72;;;;;;;;;;6192268;23;20028;-83
2023/09/28 16:06:54;;;;;;;4.20;3.60;;;;;;;;;;6194834;23;20021;-83
2023/09/28 16:09:21;;;;;;;9.95;4.45;;;;;;;;;;6191097;23;20320;-83
2023/09/28 16:11:48;;;;;;;4.70;3.05;;;;;;;;;;6190178;23;20017;-83
2023/09/28 16:14:15;;;;;;;6.53;3.22;;;;;;;;;;6167067;23;20016;-83
2023/09/28 16:16:48;;;;;;;6.40;3.35;;;;;;;;;;6192041;23;20063;-83
2023/09/28 16:19:16;;;;;;;4.18;3.30;;;;;;;;;;6191648;23;20500;-83
2023/09/28 16:21:43;;;;;;;5.70;3.28;;;;;;;;;;6167230;23;20032;-83
2023/09/28 16:24:11;;;;;;;3.72;3.42;;;;;;;;;;6218691;23;20341;-83
2023/09/28 16:26:41;;;;;;;3.90;3.10;;;;;;;;;;6191983;23;20015;-83
2023/09/28 16:29:09;;;;;;;5.97;3.85;;;;;;;;;;6191782;23;20027;-84
2023/09/28 16:31:36;;;;;;;7.13;3.40;;;;;;;;;;6191648;23;20016;-84
2023/09/28 16:34:06;;;;;;;4.75;3.67;;;;;;;;;;6217365;23;20480;-83
2023/09/28 16:36:36;;;;;;;3.10;2.60;;;;;;;;;;6189374;23;20016;-83
2023/09/28 16:39:06;;;;;;;5.10;3.40;;;;;;;;;;6191543;23;20027;-83
2023/09/28 16:41:36;;;;;;;3.92;3.05;;;;;;;;;;6193248;23;20023;-83
2023/09/28 16:44:03;;;;;;;4.00;3.33;;;;;;;;;;6192282;23;20506;-83
2023/09/28 16:46:33;;;;;;;4.72;3.22;;;;;;;;;;6220201;23;20012;-83
2023/09/28 16:49:03;;;;;;;4.15;3.08;;;;;;;;;;6220631;23;20348;-83
2023/09/28 16:51:35;;;;;;;;;;;;;;;;;;6170041;23;20028;-83
2023/09/28 16:54:08;;;;;;;6.53;3.92;;;;;;;;;;6169617;23;20237;-83
2023/09/28 16:56:35;;;;;;;7.97;4.22;;;;;;;;;;6194310;23;20017;-83
2023/09/28 16:59:02;;;;;;;5.38;3.90;;;;;;;;;;6195020;23;20035;-83
2023/09/28 17:01:32;;;;;;;6.10;3.90;;;;;;;;;;6167446;23;20514;-83
2023/09/28 17:04:02;;;;;;;6.50;3.60;;;;;;;;;;6191515;23;20024;-83
2023/09/28 17:06:29;;;;;;;3.83;3.40;;;;;;;;;;6168654;23;20032;-83
2023/09/28 17:08:57;;;;;;;5.10;3.20;;;;;;;;;;6195037;23;20021;-83
2023/09/28 17:11:26;;;;;;;5.38;3.45;;;;;;;;;;6193319;23;20016;-83
2023/09/28 17:13:53;;;;;;;4.82;3.42;;;;;;;;;;6194939;23;20028;-83
2023/09/28 17:16:27;;;;;;;6.93;3.80;;;;;;;;;;6194758;23;20407;-83
2023/09/28 17:18:55;;;;;;;5.43;3.60;;;;;;;;;;6168973;23;20027;-83
2023/09/28 17:21:22;;;;;;;5.50;3.70;;;;;;;;;;6168132;23;20080;-83
2023/09/28 17:23:49;;;;;;;5.43;3.30;;;;;;;;;;6196242;23;20465;-83
2023/09/28 17:26:16;;;;;;;4.35;3.88;;;;;;;;;;6194530;23;20021;-83
2023/09/28 17:28:45;;;;;;;10.95;4.50;;;;;;;;;;6170785;23;20028;-83
2023/09/28 17:31:13;;;;;;;4.90;3.53;;;;;;;;;;6192913;23;20012;-83
2023/09/28 17:33:41;;;;;;;6.85;4.57;;;;;;;;;;6170440;23;20020;-83
2023/09/28 17:36:10;;;;;;;5.88;3.65;;;;;;;;;;6201452;23;20015;-83
2023/09/28 17:38:37;;;;;;;4.95;3.88;;;;;;;;;;6195405;23;20017;-83
2023/09/28 17:41:07;;;;;;;6.00;4.47;;;;;;;;;;6169172;23;20024;-83
2023/09/28 17:43:34;;;;;;;6.72;4.47;;;;;;;;;;6222178;23;20017;-83
2023/09/28 17:46:03;;;;;;;10.98;5.13;;;;;;;;;;6197733;23;20023;-83
2023/09/28 17:48:33;;;;;;;5.47;3.97;;;;;;;;;;6173445;23;20460;-83
2023/09/28 17:51:01;;;;;;;8.13;4.28;;;;;;;;;;6172146;23;20021;-82
2023/09/28 17:53:28;;;;;;;5.55;4.38;;;;;;;;;;6194071;23;20468;-83
2023/09/28 17:55:58;;;;;;;4.10;3.65;;;;;;;;;;6169827;23;20072;-83
2023/09/28 17:58:27;;;;;;;6.95;3.83;;;;;;;;;;6221134;23;20467;-83
2023/09/28 18:01:10;;;;;;;5.45;4.95;;;;;;;;;;6172037;23;20029;-83
2023/09/28 18:03:39;;;;;;;6.43;3.90;;;;;;;;;;6171861;23;20372;-83
2023/09/28 18:06:09;;;;;;;5.28;4.53;;;;;;;;;;6147410;23;20012;-83
2023/09/28 18:08:46;;;;;;;5.00;4.18;;;;;;;;;;6196922;23;20338;-83
2023/09/28 18:11:28;;;;;;;8.40;3.88;;;;;;;;;;6232195;23;20012;-83
2023/09/28 18:14:22;;;;;;;6.47;3.72;;;;;;;;;;6230077;23;20039;-83
2023/09/28 18:16:53;;;;;;;6.43;4.78;;;;;;;;;;6194016;23;20027;-83
2023/09/28 18:19:21;;;;;;;4.75;3.92;;;;;;;;;;6171483;23;20035;-83
2023/09/28 18:21:51;;;;;;;4.10;3.70;;;;;;;;;;6196755;23;20020;-83
2023/09/28 18:24:18;;;;;;;5.90;3.58;;;;;;;;;;6223647;23;20483;-83
2023/09/28 18:26:45;;;;;;;8.50;4.20;;;;;;;;;;6195952;23;20013;-83
2023/09/28 18:29:15;;;;;;;5.38;4.25;;;;;;;;;;6197485;23;20034;-82
2023/09/28 18:31:45;;;;;;;4.95;4.40;;;;;;;;;;6172459;23;20039;-83
2023/09/28 18:34:14;;;;;;;5.85;4.20;;;;;;;;;;6224515;23;20016;-82
2023/09/28 18:36:41;;;;;;;5.05;4.38;;;;;;;;;;6169092;23;20445;-83
2023/09/28 18:39:09;;;;;;;4.85;4.13;;;;;;;;;;6168646;23;20024;-83
2023/09/28 18:41:37;;;;;;;6.80;4.88;;;;;;;;;;6196259;23;20022;-83
2023/09/28 18:44:06;;;;;;;5.07;4.15;;;;;;;;;;6222847;23;20353;-83
2023/09/28 18:46:37;;;;;;;6.95;5.20;;;;;;;;;;6223764;23;20027;-83
2023/09/28 18:49:05;;;;;;;6.25;5.18;;;;;;;;;;6197492;23;20023;-82
2023/09/28 18:51:36;;;;;;;7.20;6.35;;;;;;;;;;6172404;23;20017;-82
2023/09/28 18:54:06;;;;;;;8.18;6.53;;;;;;;;;;6172583;23;20031;-82
2023/09/28 18:56:33;;;;;;;7.75;6.72;;;;;;;;;;6197006;23;20457;-82
2023/09/28 18:59:04;;;;;;;8.73;5.95;;;;;;;;;;6172729;23;20020;-82
2023/09/28 19:01:31;;;;;;;14.27;8.57;;;;;;;;;;6172223;23;20027;-82
2023/09/28 19:04:01;;;;;;;14.73;10.52;;;;;;;;;;6172529;23;20031;-82
2023/09/28 19:06:29;;;;;;;13.65;10.00;;;;;;;;;;6222446;23;20009;-82
2023/09/28 19:08:58;;;;;;;16.67;9.60;;;;;;;;;;6197468;23;20035;-82
2023/09/28 19:11:28;;;;;;;11.45;8.98;;;;;;;;;;6172941;23;20021;-82
2023/09/28 19:13:58;;;;;;;11.35;8.70;;;;;;;;;;6196749;23;20373;-82
2023/09/28 19:16:25;;;;;;;10.90;8.55;;;;;;;;;;6171952;23;20361;-82
2023/09/28 19:18:54;;;;;;;8.55;7.18;;;;;;;;;;6196439;23;20503;-82
2023/09/28 19:21:24;;;;;;;9.25;6.40;;;;;;;;;;6197453;23;20027;-82
2023/09/28 19:23:58;;;;;;;8.35;7.22;;;;;;;;;;6197168;23;20024;-82
2023/09/28 19:26:30;;;;;;;8.45;7.50;;;;;;;;;;6229772;23;20012;-82
2023/09/28 19:28:57;;;;;;;8.38;7.10;;;;;;;;;;6231068;23;20016;-82
2023/09/28 19:31:28;;;;;;;10.50;6.90;;;;;;;;;;6171525;23;20024;-82
2023/09/28 19:33:58;;;;;;;7.55;6.03;;;;;;;;;;6198694;23;20021;-82
2023/09/28 19:36:25;;;;;;;4.80;4.20;;;;;;;;;;6174533;22;20021;-79
2023/09/28 19:38:53;;;;;;;8.85;5.28;;;;;;;;;;6195357;23;20021;-79
2023/09/28 19:41:25;;;;;;;7.22;5.88;;;;;;;;;;6171493;23;20017;-79
2023/09/28 19:43:52;;;;;;;9.32;6.03;;;;;;;;;;6196299;23;20020;-80
2023/09/28 19:46:23;;;;;;;6.40;5.00;;;;;;;;;;6196898;23;20024;-80
2023/09/28 19:48:53;;;;;;;5.47;4.88;;;;;;;;;;6196144;23;20028;-80
2023/09/28 19:51:22;;;;;;;5.70;5.13;;;;;;;;;;6171702;23;20024;-80
2023/09/28 19:53:52;;;;;;;6.72;5.07;;;;;;;;;;6232924;23;20027;-80
2023/09/28 19:56:25;;;;;;;5.88;4.88;;;;;;;;;;6197007;23;20046;-80
2023/09/28 19:58:59;;;;;;;7.15;4.38;;;;;;;;;;6195568;23;20020;-81
2023/09/28 20:01:28;;;;;;;7.00;4.88;;;;;;;;;;6205163;23;20023;-80
2023/09/28 20:03:56;;;;;;;6.28;5.28;;;;;;;;;;6171179;23;20027;-80
2023/09/28 20:06:30;;;;;;;4.95;4.45;;;;;;;;;;6196387;23;20489;-80
2023/09/28 20:08:58;;;;;;;6.78;5.15;;;;;;;;;;6169991;23;20025;-80
2023/09/28 20:11:28;;;;;;;6.50;4.72;;;;;;;;;;6194721;23;20047;-80
2023/09/28 20:13:59;;;;;;;9.57;4.60;;;;;;;;;;6194914;23;20021;-80
2023/09/28 20:16:29;;;;;;;5.95;4.95;;;;;;;;;;6194979;23;20027;-80
2023/09/28 20:18:58;;;;;;;7.32;5.18;;;;;;;;;;6223273;23;20465;-80
2023/09/28 20:21:26;;;;;;;6.35;5.13;;;;;;;;;;6195203;23;20021;-80
2023/09/28 20:23:53;;;;;;;5.60;4.90;;;;;;;;;;6194936;23;20035;-80
2023/09/28 20:26:20;;;;;;;5.20;4.65;;;;;;;;;;6223107;23;20012;-80
2023/09/28 20:28:49;;;;;;;6.18;4.85;;;;;;;;;;6195270;23;20017;-80
2023/09/28 20:31:21;;;;;;;6.45;4.80;;;;;;;;;;6195506;23;20504;-81
2023/09/28 20:33:48;;;;;;;5.30;4.80;;;;;;;;;;6167560;23;20020;-81
2023/09/28 20:36:18;;;;;;;6.88;5.10;;;;;;;;;;6168678;23;20027;-81
2023/09/28 20:38:46;;;;;;;6.20;4.90;;;;;;;;;;6168316;23;20019;-82
2023/09/28 20:41:13;;;;;;;7.32;5.05;;;;;;;;;;6194836;23;20035;-82
2023/09/28 20:43:40;;;;;;;5.60;5.07;;;;;;;;;;6205833;23;20012;-82
2023/09/28 20:46:09;;;;;;;6.95;4.90;;;;;;;;;;6171311;23;20020;-82
2023/09/28 20:48:38;;;;;;;4.82;4.32;;;;;;;;;;6172086;23;20016;-82
2023/09/28 20:51:07;;;;;;;4.80;4.30;;;;;;;;;;6194920;23;20027;-82
2023/09/28 20:53:34;;;;;;;6.95;5.13;;;;;;;;;;6204005;23;20012;-82
2023/09/28 20:56:01;;;;;;;7.07;5.20;;;;;;;;;;6194915;23;20020;-81
2023/09/28 20:58:29;;;;;;;6.47;5.07;;;;;;;;;;6170144;23;20016;-82
2023/09/28 21:00:56;;;;;;;6.45;4.20;;;;;;;;;;6221854;23;20019;-81
2023/09/28 21:03:27;;;;;;;4.50;4.05;;;;;;;;;;6221414;23;20019;-82
2023/09/28 21:05:58;;;;;;;7.90;5.32;;;;;;;;;;6206863;23;20024;-81
2023/09/28 21:08:28;;;;;;;6.30;4.68;;;;;;;;;;6211989;23;20023;-82
2023/09/28 21:10:57;;;;;;;6.38;5.00;;;;;;;;;;6223125;23;20357;-82
2023/09/28 21:13:27;;;;;;;4.88;4.45;;;;;;;;;;6169548;23;20035;-82
2023/09/28 21:15:54;;;;;;;5.60;4.45;;;;;;;;;;6170054;23;20046;-82
2023/09/28 21:18:21;;;;;;;13.52;6.20;;;;;;;;;;6195703;23;20017;-82
2023/09/28 21:20:49;;;;;;;8.55;4.95;;;;;;;;;;6169302;23;20031;-82
2023/09/28 21:23:17;;;;;;;5.65;5.10;;;;;;;;;;6194123;23;20016;-82
2023/09/28 21:25:47;;;;;;;5.78;5.22;;;;;;;;;;6193772;23;20025;-82
2023/09/28 21:28:14;;;;;;;7.60;4.25;;;;;;;;;;6170044;23;20345;-82
2023/09/28 21:30:41;;;;;;;6.95;4.95;;;;;;;;;;6194721;23;20551;-82
2023/09/28 21:33:08;;;;;;;6.05;5.45;;;;;;;;;;6194238;23;20027;-82
2023/09/28 21:35:36;;;;;;;6.22;4.70;;;;;;;;;;6194641;23;20017;-82
2023/09/28 21:38:03;;;;;;;6.30;5.43;;;;;;;;;;6221457;23;20012;-82
2023/09/28 21:40:34;;;;;;;6.07;5.22;;;;;;;;;;6218734;23;20013;-82
2023/09/28 21:43:01;;;;;;;9.63;5.43;;;;;;;;;;6193806;23;20017;-82
2023/09/28 21:45:31;;;;;;;6.32;4.93;;;;;;;;;;6195957;23;20467;-82
2023/09/28 21:47:58;;;;;;;6.88;6.28;;;;;;;;;;6231692;23;20009;-82
2023/09/28 21:50:25;;;;;;;6.00;5.40;;;;;;;;;;6168856;23;20016;-81
2023/09/28 21:52:55;;;;;;;5.82;5.28;;;;;;;;;;6168710;23;20021;-81
2023/09/28 21:55:24;;;;;;;7.35;5.50;;;;;;;;;;6195614;23;20023;-82
2023/09/28 21:57:53;;;;;;;6.68;6.03;;;;;;;;;;6170804;23;20027;-82
2023/09/28 22:00:34;;;;;;;;;;;;;;;;;;6205248;23;20025;-82
2023/09/28 22:03:05;;;;;;;10.68;6.38;;;;;;;;;;6205633;23;19915;-82
2023/09/28 22:05:32;;;;;;;10.10;5.95;;;;;;;;;;6193817;23;20028;-82
2023/09/28 22:08:02;;;;;;;8.18;5.10;;;;;;;;;;6204967;23;20020;-82
2023/09/28 22:10:30;;;;;;;6.72;5.70;;;;;;;;;;6168947;23;20017;-82
2023/09/28 22:12:59;;;;;;;6.97;6.28;;;;;;;;;;6168056;23;20024;-82
2023/09/28 22:15:29;;;;;;;7.25;5.30;;;;;;;;;;6193977;23;20024;-82